Time;durP1;ratioP1;P1;durP2;ratioP2;P2;SDS_P1;SDS_P2;PMS_P1;PMS_P2;Temp;Humidity;BMP_temperature;BMP_pressure;BME280_temperature;BME280_humidity;BME280_pressure;Samples;Min_cycle;Max_cycle;Signal;HPM_P1;HPM_P2
2022/06/19 17:03:10;;;;;;;13.18;4.97;;;;;;;;;;4995640;28;20510;-79
2022/06/19 17:05:37;;;;;;;16.05;4.65;;;;;;;;;;5016775;28;20583;-78
2022/06/19 17:10:51;;;;;;;17.73;4.80;;;;;;;;;;5016850;28;20865;-78
2022/06/19 17:13:18;;;;;;;12.27;3.85;;;;;;;;;;5015749;28;20091;-78
2022/06/19 17:15:46;;;;;;;13.57;4.10;;;;;;;;;;5025380;28;20026;-78
2022/06/19 17:18:14;;;;;;;12.68;3.90;;;;;;;;;;5025044;28;20478;-78
2022/06/19 17:20:41;;;;;;;11.90;4.13;;;;;;;;;;5017247;28;20052;-79
2022/06/19 17:23:28;;;;;;;9.57;3.80;;;;;;;;;;5020098;28;20460;-78
2022/06/19 17:26:13;;;;;;;12.25;3.70;;;;;;;;;;5018769;28;20037;-78
2022/06/19 17:28:50;;;;;;;17.98;4.28;;;;;;;;;;5029598;28;20120;-78
2022/06/19 17:31:20;;;;;;;16.30;3.97;;;;;;;;;;5010888;28;20036;-78
2022/06/19 17:33:46;;;;;;;15.25;4.07;;;;;;;;;;5022235;28;20080;-78
2022/06/19 17:36:18;;;;;;;11.32;3.60;;;;;;;;;;5020959;28;20083;-79
2022/06/19 17:38:59;;;;;;;14.20;4.07;;;;;;;;;;5018861;28;20041;-78
2022/06/19 17:41:32;;;;;;;15.73;4.30;;;;;;;;;;5020889;28;20033;-78
2022/06/19 17:44:00;;;;;;;13.88;4.20;;;;;;;;;;5028310;28;20039;-78
2022/06/19 17:46:30;;;;;;;12.95;3.58;;;;;;;;;;5022283;28;20036;-78
2022/06/19 17:48:57;;;;;;;14.07;4.05;;;;;;;;;;5023094;28;20196;-78
2022/06/19 17:51:41;;;;;;;12.95;4.15;;;;;;;;;;5015302;28;20072;-78
2022/06/19 17:54:06;;;;;;;17.48;4.18;;;;;;;;;;5019794;28;20037;-78
2022/06/19 17:56:46;;;;;;;12.32;3.58;;;;;;;;;;5023454;28;20049;-78
2022/06/19 17:59:23;;;;;;;12.60;3.83;;;;;;;;;;5020878;28;20041;-78
2022/06/19 18:01:53;;;;;;;10.25;3.35;;;;;;;;;;5035820;28;20036;-78
2022/06/19 18:04:20;;;;;;;9.85;4.05;;;;;;;;;;5022979;28;20556;-78
2022/06/19 18:06:47;;;;;;;10.40;3.80;;;;;;;;;;5023686;28;20029;-78
2022/06/19 18:09:19;;;;;;;14.45;3.67;;;;;;;;;;5014627;28;20046;-79
2022/06/19 18:11:45;;;;;;;15.25;4.15;;;;;;;;;;5010206;28;20482;-78
2022/06/19 18:14:13;;;;;;;14.80;4.03;;;;;;;;;;5009908;28;20033;-78
2022/06/19 18:19:24;;;;;;;12.73;4.53;;;;;;;;;;5018436;28;20663;-78
2022/06/19 18:21:50;;;;;;;12.40;4.45;;;;;;;;;;5017702;28;20080;-78
2022/06/19 18:24:18;;;;;;;10.60;4.03;;;;;;;;;;5021509;28;20037;-78
2022/06/19 18:26:44;;;;;;;13.85;4.55;;;;;;;;;;5019111;28;20033;-78
2022/06/19 18:29:10;;;;;;;10.60;3.97;;;;;;;;;;5027837;28;20041;-78
2022/06/19 18:31:36;;;;;;;10.80;3.92;;;;;;;;;;5013362;28;20033;-78
2022/06/19 18:34:02;;;;;;;17.02;4.53;;;;;;;;;;5024622;28;20103;-79
2022/06/19 18:36:28;;;;;;;15.88;4.55;;;;;;;;;;5015647;28;20103;-79
2022/06/19 18:38:56;;;;;;;15.90;7.50;;;;;;;;;;5037304;28;20492;-78
2022/06/19 18:41:22;;;;;;;12.80;5.65;;;;;;;;;;5016042;28;20030;-78
2022/06/19 18:43:48;;;;;;;12.32;4.45;;;;;;;;;;5012107;28;20037;-78
2022/06/19 18:46:14;;;;;;;14.45;4.20;;;;;;;;;;5019516;28;20036;-78
2022/06/19 18:48:42;;;;;;;14.85;5.20;;;;;;;;;;5017679;28;20117;-78
2022/06/19 18:51:10;;;;;;;11.23;4.20;;;;;;;;;;5025752;28;20030;-79
2022/06/19 18:53:36;;;;;;;14.82;4.80;;;;;;;;;;5025353;28;20041;-78
2022/06/19 18:56:03;;;;;;;14.82;4.95;;;;;;;;;;5008574;28;20740;-78
2022/06/19 18:58:31;;;;;;;11.65;4.97;;;;;;;;;;5011838;28;20443;-78
2022/06/19 19:00:58;;;;;;;21.38;7.55;;;;;;;;;;5009935;28;20517;-79
2022/06/19 19:03:24;;;;;;;15.80;7.80;;;;;;;;;;5020490;28;20057;-78
2022/06/19 19:05:51;;;;;;;18.45;7.93;;;;;;;;;;5029663;28;20417;-78
2022/06/19 19:08:20;;;;;;;20.63;9.20;;;;;;;;;;5027443;28;20071;-78
2022/06/19 19:10:48;;;;;;;16.92;6.95;;;;;;;;;;5018640;28;20033;-78
2022/06/19 19:13:16;;;;;;;15.27;5.88;;;;;;;;;;5016169;28;20167;-78
2022/06/19 19:15:43;;;;;;;22.50;12.32;;;;;;;;;;5017986;28;20079;-78
2022/06/19 19:18:12;;;;;;;14.48;5.82;;;;;;;;;;5017096;28;20022;-79
2022/06/19 19:20:41;;;;;;;12.48;5.55;;;;;;;;;;5013417;28;20045;-78
2022/06/19 19:23:07;;;;;;;16.20;5.25;;;;;;;;;;5014262;28;20641;-78
2022/06/19 19:25:35;;;;;;;14.98;5.20;;;;;;;;;;5014649;28;20048;-79
2022/06/19 19:28:06;;;;;;;18.48;6.03;;;;;;;;;;5032001;28;20120;-78
2022/06/19 19:30:34;;;;;;;17.63;5.70;;;;;;;;;;5012983;28;20045;-78
2022/06/19 19:33:02;;;;;;;13.75;5.30;;;;;;;;;;5028243;28;20471;-79
2022/06/19 19:35:30;;;;;;;13.65;5.57;;;;;;;;;;5014818;28;20034;-78
2022/06/19 19:38:02;;;;;;;18.08;10.02;;;;;;;;;;5022732;28;20021;-78
2022/06/19 19:40:28;;;;;;;21.48;9.23;;;;;;;;;;5012612;28;20060;-78
2022/06/19 19:42:54;;;;;;;15.15;8.07;;;;;;;;;;5019267;28;20029;-78
2022/06/19 19:45:20;;;;;;;17.42;6.85;;;;;;;;;;5032642;28;20141;-78
2022/06/19 19:47:50;;;;;;;17.58;7.97;;;;;;;;;;5031224;28;20025;-78
2022/06/19 19:50:26;;;;;;;19.85;10.70;;;;;;;;;;5022656;28;20562;-78
2022/06/19 19:52:52;;;;;;;27.10;13.93;;;;;;;;;;5026463;28;20025;-78
2022/06/19 19:55:20;;;;;;;14.63;6.80;;;;;;;;;;5021956;28;20488;-78
2022/06/19 19:57:46;;;;;;;20.17;6.20;;;;;;;;;;5020024;28;20101;-78
2022/06/19 20:00:18;;;;;;;15.40;5.88;;;;;;;;;;5020107;28;20046;-78
2022/06/19 20:02:43;;;;;;;;;;;;;;;;;;5027440;28;20116;-78
2022/06/19 20:05:12;;;;;;;15.30;5.80;;;;;;;;;;5032841;28;19999;-78
2022/06/19 20:10:40;;;;;;;17.33;7.32;;;;;;;;;;5025453;28;20057;-78
2022/06/19 20:13:06;;;;;;;12.32;5.70;;;;;;;;;;5019929;28;20053;-77
2022/06/19 20:15:33;;;;;;;15.82;6.55;;;;;;;;;;5030823;28;20030;-78
2022/06/19 20:18:05;;;;;;;29.80;17.67;;;;;;;;;;5017186;28;20510;-78
2022/06/19 20:20:36;;;;;;;19.38;14.27;;;;;;;;;;5017675;28;20543;-78
2022/06/19 20:23:02;;;;;;;18.52;11.35;;;;;;;;;;5020320;28;20726;-78
2022/06/19 20:25:36;;;;;;;16.83;7.90;;;;;;;;;;5019560;28;20368;-78
2022/06/19 20:28:04;;;;;;;13.77;6.35;;;;;;;;;;5019367;28;20478;-78
2022/06/19 20:30:33;;;;;;;15.55;6.25;;;;;;;;;;5017006;28;20034;-78
2022/06/19 20:33:00;;;;;;;12.60;5.82;;;;;;;;;;5018095;28;20463;-78
2022/06/19 20:35:29;;;;;;;12.68;6.25;;;;;;;;;;5020361;28;20025;-78
2022/06/19 20:38:07;;;;;;;19.33;5.78;;;;;;;;;;5015081;28;20038;-78
2022/06/19 20:40:34;;;;;;;12.40;5.55;;;;;;;;;;5026758;28;20065;-78
2022/06/19 20:43:00;;;;;;;12.32;5.55;;;;;;;;;;5012063;28;20490;-78
2022/06/19 20:45:26;;;;;;;11.77;5.43;;;;;;;;;;5027152;28;20021;-78
2022/06/19 20:47:57;;;;;;;15.38;5.18;;;;;;;;;;5015719;28;20136;-78
2022/06/19 20:50:25;;;;;;;12.37;5.33;;;;;;;;;;5017793;28;20038;-78
2022/06/19 20:52:52;;;;;;;12.10;5.57;;;;;;;;;;5012008;28;20024;-79
2022/06/19 20:55:21;;;;;;;13.68;5.35;;;;;;;;;;5011909;28;20050;-79
2022/06/19 20:57:47;;;;;;;18.33;4.55;;;;;;;;;;5012628;28;20029;-78
2022/06/19 21:00:24;;;;;;;14.43;6.28;;;;;;;;;;5019296;28;20046;-78
2022/06/19 21:02:51;;;;;;;15.07;6.15;;;;;;;;;;5014498;28;20033;-78
2022/06/19 21:05:19;;;;;;;16.50;5.43;;;;;;;;;;5017114;28;20041;-78
2022/06/19 21:07:45;;;;;;;12.57;5.50;;;;;;;;;;5020589;28;20039;-78
2022/06/19 21:10:23;;;;;;;14.13;5.22;;;;;;;;;;5019592;28;20402;-79
2022/06/19 21:12:49;;;;;;;20.23;6.03;;;;;;;;;;5027121;28;20570;-78
2022/06/19 21:15:16;;;;;;;14.75;4.43;;;;;;;;;;5020483;28;20025;-78
2022/06/19 21:17:43;;;;;;;13.45;4.85;;;;;;;;;;5024172;28;20033;-78
2022/06/19 21:20:09;;;;;;;12.50;5.43;;;;;;;;;;5014082;28;20038;-77
2022/06/19 21:22:55;;;;;;;14.52;4.97;;;;;;;;;;5014356;28;20041;-78
2022/06/19 21:25:26;;;;;;;13.63;5.47;;;;;;;;;;5021584;28;20033;-78
2022/06/19 21:27:53;;;;;;;11.25;5.10;;;;;;;;;;5012688;28;20817;-78
2022/06/19 21:30:19;;;;;;;16.73;6.20;;;;;;;;;;5019317;28;20152;-78
2022/06/19 21:32:46;;;;;;;11.07;5.10;;;;;;;;;;5016141;28;20029;-78
2022/06/19 21:35:12;;;;;;;15.80;4.97;;;;;;;;;;5015141;28;20034;-78
2022/06/19 21:37:41;;;;;;;15.52;5.25;;;;;;;;;;5010879;28;20473;-78
2022/06/19 21:40:07;;;;;;;15.45;5.40;;;;;;;;;;5016425;28;20072;-78
2022/06/19 21:42:34;;;;;;;12.95;5.57;;;;;;;;;;5027775;28;20037;-78
2022/06/19 21:45:03;;;;;;;14.00;4.90;;;;;;;;;;5012375;28;20041;-78
2022/06/19 21:47:30;;;;;;;14.23;4.40;;;;;;;;;;5024412;28;20060;-78
2022/06/19 21:49:56;;;;;;;11.75;5.70;;;;;;;;;;5023294;28;20038;-78
2022/06/19 21:52:22;;;;;;;17.10;4.82;;;;;;;;;;5009993;28;20041;-78
2022/06/19 21:54:48;;;;;;;13.63;4.93;;;;;;;;;;5010813;28;20038;-78
2022/06/19 21:57:14;;;;;;;13.38;4.70;;;;;;;;;;5011810;28;20034;-79
2022/06/19 21:59:40;;;;;;;16.20;5.53;;;;;;;;;;5011267;28;20046;-78
2022/06/19 22:02:06;;;;;;;14.88;5.65;;;;;;;;;;5016460;28;20034;-78
2022/06/19 22:04:32;;;;;;;17.23;5.57;;;;;;;;;;5030775;28;20045;-78
2022/06/19 22:06:58;;;;;;;13.55;4.72;;;;;;;;;;5024226;28;20586;-78
2022/06/19 22:12:15;;;;;;;8.98;4.40;;;;;;;;;;5019530;28;20117;-78
2022/06/19 22:12:19;;;;;;;15.95;5.82;;;;;;;;;;5013380;28;20033;-78
2022/06/19 22:14:45;;;;;;;12.40;5.70;;;;;;;;;;5016970;28;20026;-78
2022/06/19 22:17:11;;;;;;;16.45;6.05;;;;;;;;;;5009538;28;20029;-78
2022/06/19 22:19:37;;;;;;;14.23;5.22;;;;;;;;;;5010734;28;20037;-78
2022/06/19 22:22:07;;;;;;;12.85;5.60;;;;;;;;;;5019380;28;20103;-78
2022/06/19 22:24:37;;;;;;;14.90;5.57;;;;;;;;;;5022896;28;20459;-78
2022/06/19 22:27:05;;;;;;;12.68;5.32;;;;;;;;;;5014251;28;20559;-78
2022/06/19 22:29:32;;;;;;;12.80;5.18;;;;;;;;;;5012744;28;20033;-78
2022/06/19 22:31:58;;;;;;;14.77;4.70;;;;;;;;;;5013055;28;20036;-78
2022/06/19 22:34:24;;;;;;;10.23;5.00;;;;;;;;;;5013388;28;20063;-78
2022/06/19 22:36:58;;;;;;;13.20;4.38;;;;;;;;;;5010320;28;20069;-78
2022/06/19 22:39:26;;;;;;;10.75;4.45;;;;;;;;;;5013142;28;20061;-78
2022/06/19 22:41:53;;;;;;;14.13;4.80;;;;;;;;;;5012621;28;20040;-78
2022/06/19 22:44:22;;;;;;;12.65;4.55;;;;;;;;;;5023959;28;20549;-78
2022/06/19 22:46:48;;;;;;;13.98;4.88;;;;;;;;;;5017973;28;20037;-78
2022/06/19 22:49:15;;;;;;;12.32;4.43;;;;;;;;;;5029927;28;20176;-79
2022/06/19 22:51:41;;;;;;;15.43;4.93;;;;;;;;;;5022282;28;20029;-78
2022/06/19 22:54:07;;;;;;;9.77;4.28;;;;;;;;;;5011470;28;20038;-79
2022/06/19 22:56:34;;;;;;;12.93;4.60;;;;;;;;;;5016249;28;20038;-78
2022/06/19 23:01:45;;;;;;;10.55;4.55;;;;;;;;;;5008114;28;20091;-79
2022/06/19 23:04:14;;;;;;;16.38;4.82;;;;;;;;;;5009663;28;20093;-78
2022/06/19 23:06:40;;;;;;;11.77;4.90;;;;;;;;;;5010331;28;20038;-78
2022/06/19 23:09:06;;;;;;;11.95;5.20;;;;;;;;;;5011462;28;20049;-78
2022/06/19 23:11:32;;;;;;;12.45;4.82;;;;;;;;;;5020120;28;20029;-78
2022/06/19 23:13:59;;;;;;;10.52;4.22;;;;;;;;;;5027748;28;20044;-79
2022/06/19 23:16:27;;;;;;;11.07;4.82;;;;;;;;;;5026858;28;20033;-78
2022/06/19 23:18:54;;;;;;;15.90;5.90;;;;;;;;;;5023699;28;20049;-78
2022/06/19 23:21:20;;;;;;;17.85;5.95;;;;;;;;;;5013962;28;20041;-78
2022/06/19 23:23:47;;;;;;;11.80;5.00;;;;;;;;;;5014405;28;20479;-78
2022/06/19 23:26:15;;;;;;;11.38;4.85;;;;;;;;;;5018100;28;20033;-79
2022/06/19 23:28:46;;;;;;;11.52;5.80;;;;;;;;;;5018322;28;20037;-79
2022/06/19 23:31:15;;;;;;;11.40;4.63;;;;;;;;;;5025386;28;20105;-78
2022/06/19 23:33:41;;;;;;;14.40;5.35;;;;;;;;;;5018341;28;20170;-78
2022/06/19 23:36:12;;;;;;;14.13;5.13;;;;;;;;;;5009581;28;20021;-79
2022/06/19 23:38:39;;;;;;;16.17;5.85;;;;;;;;;;5009124;28;20075;-79
2022/06/19 23:41:06;;;;;;;13.43;5.22;;;;;;;;;;5020914;28;20029;-79
2022/06/19 23:43:33;;;;;;;12.18;4.72;;;;;;;;;;5012289;28;20064;-79
2022/06/19 23:46:00;;;;;;;14.07;5.00;;;;;;;;;;5016618;28;20126;-79
2022/06/19 23:48:26;;;;;;;10.68;5.10;;;;;;;;;;5026310;28;20053;-78
2022/06/19 23:50:51;;;;;;;12.23;5.53;;;;;;;;;;5023226;28;20030;-79
2022/06/19 23:53:18;;;;;;;10.82;4.35;;;;;;;;;;5008929;28;20030;-79
2022/06/19 23:55:44;;;;;;;15.73;4.47;;;;;;;;;;5008694;28;20049;-78
2022/06/19 23:58:12;;;;;;;12.02;4.50;;;;;;;;;;5015376;28;20096;-78
